Time;durP1;ratioP1;P1;durP2;ratioP2;P2;SDS_P1;SDS_P2;PMS_P1;PMS_P2;Temp;Humidity;BMP_temperature;BMP_pressure;BME280_temperature;BME280_humidity;BME280_pressure;Samples;Min_cycle;Max_cycle;Signal;HPM_P1;HPM_P2
2023/09/13 00:00:15;;;;;;;1063.68;538.65;;;17.70;99.90;;;;;;5092408;28;20052;-89
2023/09/13 00:02:41;;;;;;;1242.30;727.70;;;17.70;99.90;;;;;;5092782;28;20097;-91
2023/09/13 00:05:08;;;;;;;1109.32;550.40;;;17.70;99.90;;;;;;5110000;28;20417;-89
2023/09/13 00:07:37;;;;;;;1245.72;724.67;;;17.60;99.90;;;;;;5113480;28;20039;-89
2023/09/13 00:10:03;;;;;;;1233.72;721.58;;;17.60;99.90;;;;;;5114014;28;20039;-92
2023/09/13 00:12:29;;;;;;;1102.03;550.92;;;17.60;99.90;;;;;;5097131;28;20052;-91
2023/09/13 00:14:55;;;;;;;1106.03;547.03;;;17.50;99.90;;;;;;5101594;28;20505;-92
2023/09/13 00:17:22;;;;;;;1101.32;551.05;;;17.50;99.90;;;;;;5092873;28;20058;-91
2023/09/13 00:19:48;;;;;;;1091.22;536.50;;;17.50;99.90;;;;;;5092448;28;20054;-92
2023/09/13 00:22:14;;;;;;;1242.85;719.97;;;17.50;99.90;;;;;;5092442;28;20170;-91
2023/09/13 00:24:39;;;;;;;1091.07;541.08;;;17.40;99.90;;;;;;5093641;28;20074;-90
2023/09/13 00:27:05;;;;;;;1250.45;720.42;;;17.50;99.90;;;;;;5092863;28;20040;-90
2023/09/13 00:29:33;;;;;;;1232.53;709.05;;;17.40;99.90;;;;;;5109652;28;20485;-92
2023/09/13 00:32:02;;;;;;;1244.55;707.33;;;17.40;99.90;;;;;;5114039;28;20036;-91
2023/09/13 00:34:30;;;;;;;1093.07;538.90;;;17.40;99.90;;;;;;5096360;28;20040;-90
2023/09/13 00:36:55;;;;;;;1248.97;716.88;;;17.40;99.90;;;;;;5093419;28;20044;-90
2023/09/13 00:39:22;;;;;;;1246.47;717.45;;;17.30;99.90;;;;;;5114573;28;20046;-91
2023/09/13 00:41:47;;;;;;;1095.15;543.72;;;17.30;99.90;;;;;;5117297;28;20046;-89
2023/09/13 00:44:13;;;;;;;1120.25;551.67;;;17.30;99.90;;;;;;5099108;28;20429;-91
2023/09/13 00:46:40;;;;;;;1131.57;552.17;;;17.30;99.90;;;;;;5116077;28;20617;-89
2023/09/13 00:49:06;;;;;;;1259.85;710.90;;;17.30;99.90;;;;;;5101754;28;20082;-90
2023/09/13 00:51:32;;;;;;;1110.72;549.60;;;17.30;99.90;;;;;;5096173;28;20079;-91
2023/09/13 00:54:01;;;;;;;1115.72;557.10;;;17.30;99.90;;;;;;5096696;28;20165;-90
2023/09/13 00:56:28;;;;;;;1111.60;550.35;;;17.20;99.90;;;;;;5078664;28;20407;-89
2023/09/13 00:58:55;;;;;;;1261.82;713.40;;;17.30;99.90;;;;;;5078358;28;20055;-89
2023/09/13 01:01:21;;;;;;;1267.05;708.50;;;17.20;99.90;;;;;;5095589;28;20414;-91
2023/09/13 01:03:47;;;;;;;1122.50;541.58;;;17.20;99.90;;;;;;5111081;28;20092;-91
2023/09/13 01:06:16;;;;;;;1285.80;714.38;;;17.20;99.90;;;;;;5115928;28;20035;-91
2023/09/13 01:08:43;;;;;;;1147.80;542.42;;;17.20;99.90;;;;;;5098915;28;20573;-91
2023/09/13 01:11:09;;;;;;;1148.72;550.08;;;17.20;99.90;;;;;;5116791;28;20566;-90
2023/09/13 01:13:35;;;;;;;1281.68;685.30;;;17.10;99.90;;;;;;5095761;28;20044;-91
2023/09/13 01:16:17;;;;;;;1295.82;709.15;;;17.20;99.90;;;;;;5096509;28;20059;-90
2023/09/13 01:18:56;;;;;;;1294.13;694.15;;;17.20;99.90;;;;;;5107424;28;20046;-91
2023/09/13 01:22:03;;;;;;;1156.18;543.15;;;17.10;99.90;;;;;;5078869;28;20048;-92
2023/09/13 01:24:40;;;;;;;1249.28;540.72;;;17.10;99.90;;;;;;5096600;28;20048;-91
2023/09/13 01:27:31;;;;;;;1276.43;555.97;;;17.00;99.90;;;;;;5096497;28;20103;-92
2023/09/13 01:29:59;;;;;;;1289.25;556.30;;;17.00;99.90;;;;;;5105674;28;20058;-92
2023/09/13 01:32:25;;;;;;;1392.90;690.72;;;17.00;99.90;;;;;;5101261;28;20044;-92
2023/09/13 01:34:51;;;;;;;1325.43;561.15;;;17.00;99.90;;;;;;5115175;28;20059;-92
2023/09/13 01:37:17;;;;;;;1393.05;681.55;;;17.00;99.90;;;;;;5088758;28;20498;-92
2023/09/13 01:39:43;;;;;;;1392.95;691.95;;;17.00;99.90;;;;;;5095167;28;20071;-91
2023/09/13 01:42:11;;;;;;;1394.57;691.83;;;17.00;99.90;;;;;;5096598;28;20047;-91
2023/09/13 01:44:40;;;;;;;1393.82;676.83;;;16.90;99.90;;;;;;5114736;28;20047;-90
2023/09/13 01:47:08;;;;;;;1336.25;558.35;;;17.00;99.90;;;;;;5114072;28;20035;-90
2023/09/13 01:49:38;;;;;;;1358.13;572.92;;;16.90;99.90;;;;;;5115298;28;20055;-90
2023/09/13 01:52:05;;;;;;;1366.85;571.22;;;16.90;99.90;;;;;;5116390;28;20044;-90
2023/09/13 01:54:35;;;;;;;1366.63;571.60;;;16.90;99.90;;;;;;5115341;28;20044;-90
2023/09/13 01:57:01;;;;;;;1351.47;567.38;;;16.90;99.90;;;;;;5097268;28;20047;-91
2023/09/13 01:59:27;;;;;;;1350.38;571.95;;;16.90;99.90;;;;;;5115007;28;20119;-92
2023/09/13 02:01:53;;;;;;;1334.60;556.88;;;16.90;99.90;;;;;;5097999;28;20139;-91
2023/09/13 02:04:18;;;;;;;1349.72;563.83;;;16.90;99.90;;;;;;5095440;28;20055;-91
2023/09/13 02:06:44;;;;;;;1336.97;564.85;;;16.90;99.90;;;;;;5107362;28;20035;-90
2023/09/13 02:09:10;;;;;;;1373.00;672.30;;;16.90;99.90;;;;;;5116096;27;20047;-91
2023/09/13 02:11:36;;;;;;;1252.57;547.33;;;16.90;99.90;;;;;;5114802;28;20382;-92
2023/09/13 02:14:02;;;;;;;1374.70;688.17;;;16.90;99.90;;;;;;5115649;28;20042;-90
2023/09/13 02:16:28;;;;;;;1289.03;554.40;;;16.90;99.90;;;;;;5092652;28;20409;-91
2023/09/13 02:18:54;;;;;;;1387.47;693.25;;;16.90;99.90;;;;;;5093454;28;20075;-91
2023/09/13 02:21:20;;;;;;;1316.03;553.47;;;16.90;99.90;;;;;;5103534;28;20075;-91
2023/09/13 02:23:46;;;;;;;1329.18;555.97;;;16.90;99.90;;;;;;5095661;28;20111;-91
2023/09/13 02:26:22;;;;;;;1394.53;683.33;;;16.90;99.90;;;;;;5094437;28;20149;-91
2023/09/13 02:28:51;;;;;;;1397.00;676.53;;;16.90;99.90;;;;;;5094116;28;20072;-91
2023/09/13 02:31:27;;;;;;;1394.47;681.38;;;16.90;99.90;;;;;;5093966;28;20055;-92
2023/09/13 02:33:53;;;;;;;1343.30;556.45;;;16.90;99.90;;;;;;5095691;28;20059;-91
2023/09/13 02:36:20;;;;;;;1390.55;672.53;;;16.90;99.90;;;;;;5094475;28;20040;-91
2023/09/13 02:38:45;;;;;;;1393.85;684.95;;;16.90;99.90;;;;;;5095359;28;20044;-92
2023/09/13 02:41:11;;;;;;;1398.65;686.38;;;16.90;99.90;;;;;;5095194;28;20504;-92
2023/09/13 02:47:18;;;;;;;1395.53;677.47;;;16.90;99.90;;;;;;5094794;28;20039;-91
2023/09/13 02:49:44;;;;;;;1401.73;686.87;;;16.80;99.90;;;;;;5093532;28;20044;-88
2023/09/13 02:52:10;;;;;;;1324.00;562.58;;;16.90;99.90;;;;;;5094592;28;20044;-90
2023/09/13 02:54:35;;;;;;;1396.38;695.60;;;16.80;99.90;;;;;;5093984;28;20398;-91
2023/09/13 02:57:07;;;;;;;1385.13;672.75;;;16.80;99.90;;;;;;5095022;28;20036;-89
2023/09/13 02:59:32;;;;;;;1292.78;544.53;;;16.70;99.90;;;;;;5093297;28;20526;-90
2023/09/13 03:01:58;;;;;;;1374.95;682.67;;;16.70;99.90;;;;;;5112863;28;20047;-88
2023/09/13 03:04:24;;;;;;;1379.97;688.45;;;16.70;99.90;;;;;;5096703;28;20520;-90
2023/09/13 03:06:50;;;;;;;1391.75;687.95;;;16.60;99.90;;;;;;5096588;28;20043;-90
2023/09/13 03:09:15;;;;;;;1375.43;681.10;;;16.60;99.90;;;;;;5096878;28;20047;-90
2023/09/13 03:11:42;;;;;;;1374.00;682.70;;;16.60;99.90;;;;;;5114719;28;20054;-90
2023/09/13 03:17:50;;;;;;;1400.03;664.90;;;16.60;99.90;;;;;;5115060;28;20088;-90
2023/09/13 03:20:16;;;;;;;1299.43;539.30;;;16.50;99.90;;;;;;5114950;28;20045;-90
2023/09/13 03:22:42;;;;;;;1398.05;686.40;;;16.50;99.90;;;;;;5105908;27;20400;-91
2023/09/13 03:25:08;;;;;;;1296.95;540.47;;;16.50;99.90;;;;;;5103621;27;20092;-90
2023/09/13 03:27:34;;;;;;;1290.57;540.72;;;16.40;99.90;;;;;;5097470;28;20043;-89
2023/09/13 03:29:59;;;;;;;1288.60;538.30;;;16.50;99.90;;;;;;5079944;28;20110;-90
2023/09/13 03:32:25;;;;;;;1282.97;543.03;;;16.50;99.90;;;;;;5097083;28;20545;-90
2023/09/13 03:34:51;;;;;;;1390.93;672.72;;;16.40;99.90;;;;;;5096583;28;20042;-89
2023/09/13 03:37:18;;;;;;;1395.85;687.25;;;16.50;99.90;;;;;;5096781;28;20063;-90
2023/09/13 03:39:44;;;;;;;1295.22;541.88;;;16.50;99.90;;;;;;5097529;28;20511;-89
2023/09/13 03:42:09;;;;;;;1286.45;536.95;;;16.50;99.90;;;;;;5097000;28;20139;-89
2023/09/13 03:44:35;;;;;;;1275.32;546.58;;;16.40;99.90;;;;;;5087195;27;20126;-90
2023/09/13 03:47:01;;;;;;;1278.00;541.55;;;16.40;99.90;;;;;;5119049;27;20524;-89
2023/09/13 03:49:26;;;;;;;1271.70;538.28;;;16.40;99.90;;;;;;5118350;28;20039;-90
2023/09/13 03:51:52;;;;;;;1391.53;675.15;;;16.40;99.90;;;;;;5138587;27;20064;-90
2023/09/13 03:54:18;;;;;;;1382.70;682.80;;;16.40;99.90;;;;;;5125407;28;20400;-89
2023/09/13 03:56:44;;;;;;;1369.88;653.95;;;16.40;99.90;;;;;;5108657;28;20139;-88
2023/09/13 03:59:09;;;;;;;1381.15;677.20;;;16.40;99.90;;;;;;5122108;28;20059;-87
2023/09/13 04:01:35;;;;;;;1101.88;527.50;;;16.40;99.90;;;;;;5114054;28;20058;-90
2023/09/13 04:04:01;;;;;;;1238.90;681.53;;;16.40;99.90;;;;;;5114350;28;20419;-91
2023/09/13 04:06:27;;;;;;;1260.75;659.28;;;16.30;99.90;;;;;;5095856;28;20052;-90
2023/09/13 04:08:53;;;;;;;1292.38;666.55;;;16.30;99.90;;;;;;5079268;28;20404;-89
2023/09/13 04:11:18;;;;;;;1175.10;529.13;;;16.30;99.90;;;;;;5096499;28;20047;-90
2023/09/13 04:13:44;;;;;;;1318.53;684.35;;;16.20;99.90;;;;;;5118196;28;20504;-90
2023/09/13 04:16:14;;;;;;;1194.10;531.78;;;16.20;99.90;;;;;;5115724;27;20051;-89
2023/09/13 04:18:40;;;;;;;1330.25;649.00;;;16.10;99.90;;;;;;5103445;27;20035;-90
2023/09/13 04:21:05;;;;;;;1351.90;652.00;;;16.10;99.90;;;;;;5125024;27;20561;-93
2023/09/13 04:23:31;;;;;;;1287.72;547.30;;;16.00;99.90;;;;;;5119438;28;20109;-91
2023/09/13 04:25:57;;;;;;;1324.15;551.45;;;15.90;99.90;;;;;;5100421;28;20047;-92
2023/09/13 04:28:23;;;;;;;1416.70;580.03;;;15.80;99.90;;;;;;5083076;28;20071;-92
2023/09/13 04:30:49;;;;;;;1427.83;578.63;;;15.70;99.90;;;;;;5099838;28;20052;-92
2023/09/13 04:33:14;;;;;;;1461.07;583.73;;;15.60;99.90;;;;;;5100295;28;20043;-93
2023/09/13 04:35:40;;;;;;;1479.90;589.60;;;15.60;99.90;;;;;;5117889;28;20055;-92
2023/09/13 04:38:06;;;;;;;1343.83;623.77;;;15.50;99.90;;;;;;5118219;28;20446;-94
2023/09/13 04:40:32;;;;;;;1402.53;578.13;;;15.50;99.90;;;;;;5083014;28;20055;-93
2023/09/13 04:43:06;;;;;;;1322.23;586.97;;;15.40;99.90;;;;;;5100030;28;20104;-93
2023/09/13 04:45:33;;;;;;;1289.00;536.95;;;15.20;99.90;;;;;;5101294;28;20051;-93
2023/09/13 04:47:59;;;;;;;1345.70;542.80;;;15.20;99.90;;;;;;5118142;28;20123;-91
2023/09/13 04:50:24;;;;;;;1317.37;555.63;;;15.10;99.90;;;;;;5100458;28;20071;-92
2023/09/13 04:52:50;;;;;;;1276.70;566.97;;;15.10;99.90;;;;;;5115698;27;20096;-91
2023/09/13 04:55:18;;;;;;;1345.00;571.87;;;15.00;99.90;;;;;;5120202;27;20560;-92
2023/09/13 04:57:44;;;;;;;1336.17;594.77;;;15.00;99.90;;;;;;5118259;27;20039;-88
2023/09/13 05:00:11;;;;;;;1334.77;590.47;;;15.00;99.90;;;;;;5118752;27;20043;-91
2023/09/13 05:02:40;;;;;;;1383.87;631.60;;;14.90;99.90;;;;;;5137471;27;20051;-91
2023/09/13 05:05:06;;;;;;;1404.90;646.33;;;14.90;99.90;;;;;;5102768;27;20043;-90
2023/09/13 05:07:32;;;;;;;1412.63;649.60;;;14.90;99.90;;;;;;5122852;27;20051;-92
2023/09/13 05:09:58;;;;;;;1397.47;633.23;;;14.90;99.90;;;;;;5099069;28;20031;-89
2023/09/13 05:12:23;;;;;;;1451.00;587.77;;;14.90;99.90;;;;;;5124171;27;20050;-91
2023/09/13 05:14:49;;;;;;;1438.93;583.40;;;14.90;99.90;;;;;;5137408;27;20059;-91
2023/09/13 05:17:15;;;;;;;1345.70;588.10;;;14.90;99.90;;;;;;5118524;27;20041;-91
2023/09/13 05:19:41;;;;;;;1331.23;588.80;;;14.90;99.90;;;;;;5099216;28;20169;-91
2023/09/13 05:22:06;;;;;;;1387.20;587.73;;;14.90;99.90;;;;;;5116636;27;20050;-91
2023/09/13 05:24:32;;;;;;;1317.07;578.87;;;14.90;99.90;;;;;;5098503;28;20127;-91
2023/09/13 05:26:58;;;;;;;1429.60;574.80;;;14.80;99.90;;;;;;5119431;27;20036;-91
2023/09/13 05:29:23;;;;;;;1446.97;580.43;;;14.80;99.90;;;;;;5118778;27;20080;-88
2023/09/13 05:31:49;;;;;;;1448.73;576.70;;;14.80;99.90;;;;;;5096554;28;20052;-90
2023/09/13 05:34:15;;;;;;;1453.90;575.97;;;14.80;99.90;;;;;;5081013;28;20043;-89
2023/09/13 05:36:41;;;;;;;1365.77;590.70;;;14.70;99.90;;;;;;5115969;28;20375;-89
2023/09/13 05:39:08;;;;;;;1369.30;591.77;;;14.70;99.90;;;;;;5098157;28;20048;-88
2023/09/13 05:41:33;;;;;;;1363.17;587.60;;;14.70;99.90;;;;;;5122961;27;20179;-89
2023/09/13 05:44:02;;;;;;;1359.60;583.87;;;14.70;99.90;;;;;;5117877;27;20079;-89
2023/09/13 05:46:28;;;;;;;1428.07;567.27;;;14.80;99.90;;;;;;5117785;27;20054;-90
2023/09/13 05:48:54;;;;;;;1347.83;574.80;;;14.80;99.90;;;;;;5116147;27;20035;-90
2023/09/13 05:51:19;;;;;;;1331.03;564.67;;;14.80;99.90;;;;;;5097649;27;20082;-90
2023/09/13 05:53:45;;;;;;;1342.50;585.57;;;14.70;99.90;;;;;;5115156;27;20050;-84
2023/09/13 05:56:11;;;;;;;1285.40;618.37;;;14.80;99.90;;;;;;5124070;27;20433;-83
2023/09/13 05:58:38;;;;;;;1261.30;566.57;;;14.80;99.90;;;;;;5135779;27;20047;-84
2023/09/13 06:01:05;;;;;;;1155.13;561.63;;;14.80;99.90;;;;;;5135227;27;20088;-85
2023/09/13 06:03:45;;;;;;;1100.27;458.70;;;14.70;99.90;;;;;;5135714;27;20066;-88
2023/09/13 06:06:11;;;;;;;1086.60;447.37;;;14.70;99.90;;;;;;5110225;28;20533;-85
2023/09/13 06:08:37;;;;;;;1087.07;450.27;;;14.70;99.90;;;;;;5097011;28;20040;-87
2023/09/13 06:11:02;;;;;;;1067.90;437.80;;;14.60;99.90;;;;;;5081764;27;20051;-86
2023/09/13 06:13:28;;;;;;;1034.07;429.57;;;14.60;99.90;;;;;;5135280;27;20035;-83
2023/09/13 06:15:54;;;;;;;1047.73;525.53;;;14.60;99.90;;;;;;5117272;27;20050;-85
2023/09/13 06:18:20;;;;;;;1041.77;530.80;;;14.70;99.90;;;;;;5135413;27;20043;-85
2023/09/13 06:20:45;;;;;;;1003.67;424.93;;;14.70;99.90;;;;;;5099827;27;20084;-85
2023/09/13 06:23:34;;;;;;;1028.13;526.93;;;14.80;99.90;;;;;;5115554;27;20088;-85
2023/09/13 06:26:00;;;;;;;958.67;427.67;;;14.80;99.90;;;;;;5114403;27;20043;-87
2023/09/13 06:28:29;;;;;;;936.93;523.10;;;14.90;99.90;;;;;;5116534;27;20418;-86
2023/09/13 06:30:57;;;;;;;931.03;522.33;;;14.90;99.90;;;;;;5112833;28;20036;-86
2023/09/13 06:33:22;;;;;;;972.03;434.90;;;14.90;99.90;;;;;;5095886;28;20290;-86
2023/09/13 06:35:49;;;;;;;1065.17;543.87;;;14.90;99.90;;;;;;5095400;28;20047;-84
2023/09/13 06:38:15;;;;;;;966.10;525.40;;;14.80;99.90;;;;;;5095918;28;20039;-86
2023/09/13 06:40:43;;;;;;;960.77;521.83;;;14.80;99.90;;;;;;5095809;28;20046;-85
2023/09/13 06:43:14;;;;;;;970.20;523.57;;;14.80;99.90;;;;;;5096947;28;20312;-87
2023/09/13 06:45:40;;;;;;;959.87;523.20;;;14.80;99.90;;;;;;5114370;27;20036;-86
2023/09/13 06:48:06;;;;;;;977.07;522.23;;;14.90;99.90;;;;;;5114526;28;20035;-87
2023/09/13 06:50:32;;;;;;;987.90;432.70;;;14.80;99.90;;;;;;5095731;28;20536;-85
2023/09/13 06:52:57;;;;;;;979.67;525.17;;;14.90;99.90;;;;;;5112837;27;20045;-86
2023/09/13 06:55:23;;;;;;;956.27;435.10;;;14.80;99.90;;;;;;5114019;28;20050;-84
2023/09/13 06:57:51;;;;;;;988.60;528.43;;;14.90;99.90;;;;;;5095592;28;20047;-84
2023/09/13 07:00:17;;;;;;;968.73;523.70;;;14.90;99.90;;;;;;5095616;28;20051;-84
2023/09/13 07:02:43;;;;;;;941.17;439.90;;;14.90;99.90;;;;;;5106088;27;20299;-84
2023/09/13 07:05:08;;;;;;;911.83;435.07;;;14.80;99.90;;;;;;5110002;28;20039;-84
2023/09/13 07:07:34;;;;;;;903.13;433.57;;;14.80;99.90;;;;;;5113643;28;20035;-84
2023/09/13 07:10:02;;;;;;;893.77;437.00;;;14.90;99.90;;;;;;5095579;28;20039;-84
2023/09/13 07:12:27;;;;;;;864.33;517.53;;;14.90;99.90;;;;;;5113577;28;20047;-84
2023/09/13 07:14:53;;;;;;;873.23;431.73;;;14.90;99.90;;;;;;5095707;28;20080;-83
2023/09/13 07:17:19;;;;;;;865.43;433.57;;;14.90;99.90;;;;;;5115020;27;20092;-83
2023/09/13 07:19:45;;;;;;;821.23;506.43;;;14.90;99.90;;;;;;5095400;28;20402;-85
2023/09/13 07:22:11;;;;;;;853.23;426.53;;;15.00;99.90;;;;;;5095892;28;20371;-84
2023/09/13 07:24:36;;;;;;;874.97;436.47;;;14.90;99.90;;;;;;5095293;28;20051;-83
2023/09/13 07:27:02;;;;;;;872.10;433.03;;;15.00;99.90;;;;;;5113489;28;20040;-84
2023/09/13 07:29:28;;;;;;;866.73;430.50;;;15.00;99.90;;;;;;5078060;28;20040;-83
2023/09/13 07:31:53;;;;;;;882.90;442.27;;;15.00;99.90;;;;;;5113646;28;20135;-83
2023/09/13 07:34:20;;;;;;;829.33;507.77;;;15.00;99.90;;;;;;5095077;28;20448;-84
2023/09/13 07:36:46;;;;;;;849.33;432.60;;;15.10;99.90;;;;;;5095633;28;20044;-83
2023/09/13 07:39:11;;;;;;;822.27;507.43;;;15.10;99.90;;;;;;5095106;28;20346;-83
2023/09/13 07:41:37;;;;;;;826.70;507.93;;;15.10;99.90;;;;;;5113479;28;20282;-84
2023/09/13 07:44:03;;;;;;;821.57;509.67;;;15.10;99.90;;;;;;5113502;28;20043;-83
2023/09/13 07:46:29;;;;;;;825.77;507.57;;;15.10;99.90;;;;;;5078314;28;20043;-83
2023/09/13 07:48:55;;;;;;;841.37;424.10;;;15.10;99.90;;;;;;5095547;28;20130;-82
2023/09/13 07:51:21;;;;;;;808.03;505.07;;;15.10;99.90;;;;;;5095126;28;20392;-84
2023/09/13 07:53:46;;;;;;;785.13;347.57;;;15.10;99.90;;;;;;5103768;28;20043;-83
2023/09/13 07:56:12;;;;;;;763.47;279.77;;;15.10;99.90;;;;;;5095341;28;20043;-83
2023/09/13 07:59:01;;;;;;;755.90;350.87;;;15.20;99.90;;;;;;5095640;28;20382;-83
2023/09/13 08:01:26;;;;;;;770.60;267.23;;;15.20;99.90;;;;;;5094942;28;20105;-83
2023/09/13 08:03:52;;;;;;;763.53;407.90;;;15.20;99.90;;;;;;5113443;28;20649;-84
2023/09/13 08:06:22;;;;;;;790.10;367.87;;;15.20;99.90;;;;;;5113694;28;20077;-84
2023/09/13 08:08:48;;;;;;;778.03;452.23;;;15.30;99.90;;;;;;5095599;28;20075;-85
2023/09/13 08:11:14;;;;;;;754.47;471.50;;;15.30;99.90;;;;;;5113247;28;20043;-84
2023/09/13 08:13:40;;;;;;;772.73;481.83;;;15.30;99.90;;;;;;5094973;28;20090;-84
2023/09/13 08:16:06;;;;;;;812.93;352.60;;;15.40;99.90;;;;;;5095140;28;20343;-84
2023/09/13 08:18:32;;;;;;;817.03;365.93;;;15.50;99.90;;;;;;5094903;28;20089;-83
2023/09/13 08:20:57;;;;;;;833.13;399.80;;;15.50;99.90;;;;;;5094967;28;20043;-85
2023/09/13 08:23:24;;;;;;;789.03;491.70;;;15.60;99.90;;;;;;5113126;28;20050;-84
2023/09/13 08:25:49;;;;;;;810.77;396.17;;;15.60;99.90;;;;;;5095341;28;20059;-84
2023/09/13 08:28:15;;;;;;;777.60;478.47;;;15.70;99.90;;;;;;5095000;28;20288;-84
2023/09/13 08:30:41;;;;;;;788.97;490.43;;;15.90;99.90;;;;;;5094927;28;20054;-85
2023/09/13 08:33:10;;;;;;;790.10;462.00;;;15.80;99.90;;;;;;5096690;28;20053;-85
2023/09/13 08:35:36;;;;;;;797.07;445.60;;;15.90;99.90;;;;;;5095350;28;20177;-84
2023/09/13 08:38:01;;;;;;;824.70;357.77;;;16.00;99.90;;;;;;5094669;28;20135;-84
2023/09/13 08:40:27;;;;;;;823.73;379.43;;;16.00;99.90;;;;;;5113060;28;20044;-84
2023/09/13 08:47:10;;;;;;;831.63;383.70;;;16.00;99.90;;;;;;5113174;28;20037;-85
2023/09/13 08:49:36;;;;;;;822.67;368.33;;;16.10;99.90;;;;;;5112967;28;20281;-84
2023/09/13 08:52:03;;;;;;;821.73;382.57;;;16.00;99.90;;;;;;5118055;28;20297;-83
2023/09/13 08:54:29;;;;;;;824.93;383.13;;;15.90;99.90;;;;;;5106552;28;20333;-84
2023/09/13 08:56:56;;;;;;;815.80;374.77;;;15.90;99.90;;;;;;5116003;28;20676;-83
2023/09/13 09:03:15;;;;;;;792.30;232.17;;;15.80;99.90;;;;;;5131713;27;20315;-83
2023/09/13 09:05:41;;;;;;;782.93;275.60;;;15.80;99.90;;;;;;5101919;27;20297;-83
2023/09/13 09:08:09;;;;;;;786.10;319.80;;;15.80;99.90;;;;;;5119162;27;20296;-83
2023/09/13 09:10:35;;;;;;;790.20;256.50;;;15.80;99.90;;;;;;5119421;27;20308;-83
2023/09/13 09:16:46;;;;;;;788.57;308.30;;;15.90;99.90;;;;;;5137614;27;20119;-84
2023/09/13 09:19:12;;;;;;;795.53;210.57;;;16.00;99.90;;;;;;5119450;27;20616;-83
2023/09/13 09:21:39;;;;;;;779.40;242.30;;;16.10;99.90;;;;;;5137530;27;20275;-83
2023/09/13 09:24:05;;;;;;;813.97;205.00;;;16.10;99.90;;;;;;5102332;27;20050;-83
2023/09/13 09:26:30;;;;;;;798.47;209.27;;;16.00;99.90;;;;;;5118997;27;20702;-83
2023/09/13 09:29:10;;;;;;;821.77;207.70;;;16.00;99.90;;;;;;5137357;27;20047;-83
2023/09/13 09:31:36;;;;;;;819.70;207.27;;;16.00;99.90;;;;;;5114385;28;20130;-83
2023/09/13 09:34:03;;;;;;;818.57;206.37;;;16.10;99.90;;;;;;5120350;28;20274;-85
2023/09/13 09:36:34;;;;;;;807.53;203.03;;;16.10;99.90;;;;;;5134121;28;20392;-83
2023/09/13 09:39:01;;;;;;;795.53;202.70;;;16.10;99.90;;;;;;5101575;28;20289;-84
2023/09/13 09:41:37;;;;;;;796.60;204.17;;;16.10;99.90;;;;;;5117444;28;20315;-84
2023/09/13 09:44:04;;;;;;;794.33;202.57;;;16.30;99.90;;;;;;5137435;28;20277;-86
2023/09/13 09:46:31;;;;;;;824.80;221.73;;;16.30;99.90;;;;;;5147473;27;20300;-84
2023/09/13 09:48:58;;;;;;;802.10;349.47;;;16.40;99.90;;;;;;5135014;27;20043;-83
2023/09/13 09:51:24;;;;;;;829.03;253.33;;;16.50;99.90;;;;;;5134795;27;20027;-84
2023/09/13 09:53:50;;;;;;;831.10;315.23;;;16.50;99.90;;;;;;5181570;27;20288;-83
2023/09/13 09:56:16;;;;;;;799.43;452.13;;;16.70;99.90;;;;;;5169842;27;20099;-84
2023/09/13 10:02:27;;;;;;;801.27;453.70;;;16.80;99.90;;;;;;5131428;28;20818;-84
2023/09/13 10:04:52;;;;;;;802.73;438.07;;;16.90;99.90;;;;;;5135238;28;20341;-84
2023/09/13 10:07:18;;;;;;;826.27;363.80;;;16.90;99.90;;;;;;5133446;28;20048;-84
2023/09/13 10:09:46;;;;;;;825.20;372.03;;;16.90;99.90;;;;;;5114456;28;20039;-84
2023/09/13 10:12:13;;;;;;;826.83;370.20;;;16.90;99.90;;;;;;5119177;28;20043;-84
2023/09/13 10:14:40;;;;;;;800.97;451.50;;;16.90;99.90;;;;;;5115272;28;20047;-84
2023/09/13 10:17:07;;;;;;;802.00;447.07;;;17.00;99.90;;;;;;5097933;28;20047;-85
2023/09/13 10:19:34;;;;;;;792.23;468.20;;;17.10;99.90;;;;;;5115312;28;20310;-83
2023/09/13 10:22:00;;;;;;;799.90;485.43;;;17.20;99.90;;;;;;5115505;28;20360;-84
2023/09/13 10:24:53;;;;;;;813.70;470.40;;;17.30;99.90;;;;;;5107225;27;20054;-83
2023/09/13 10:27:24;;;;;;;804.50;462.03;;;17.50;99.90;;;;;;5139627;27;20136;-86
2023/09/13 10:30:00;;;;;;;817.80;476.33;;;17.70;99.90;;;;;;5117114;27;20503;-85
2023/09/13 10:32:32;;;;;;;;;;;17.80;99.90;;;;;;5136088;27;20281;-84
2023/09/13 10:35:00;;;;;;;844.03;380.90;;;17.90;99.90;;;;;;5135616;27;19923;-84
2023/09/13 10:37:35;;;;;;;812.07;468.27;;;18.00;99.90;;;;;;5116899;27;20043;-85
2023/09/13 10:40:23;;;;;;;814.05;464.30;;;18.10;99.90;;;;;;5135716;27;20053;-85
2023/09/13 10:42:49;;;;;;;871.53;443.87;;;18.30;99.90;;;;;;5105066;27;20398;-84
2023/09/13 10:45:18;;;;;;;818.27;491.03;;;18.20;99.90;;;;;;5110610;27;20299;-85
2023/09/13 10:47:47;;;;;;;858.57;438.80;;;18.10;99.90;;;;;;5123028;27;20106;-88
2023/09/13 10:53:37;;;;;;;869.63;454.83;;;18.30;99.90;;;;;;5299664;22;20324;-94
2023/09/13 11:03:19;;;;;;;816.50;440.10;;;18.50;99.90;;;;;;5112765;28;20076;-92
2023/09/13 11:10:40;;;;;;;831.30;455.27;;;18.60;99.90;;;;;;4931795;29;20051;-89
2023/09/13 11:21:08;;;;;;;601.73;223.47;;;19.20;99.90;;;;;;3001377;22;20049;-89
2023/09/13 11:23:53;;;;;;;;;;;;;;;;;;;;;
2023/09/13 11:26:50;;;;;;;632.87;218.67;;;19.50;99.90;;;;;;5068589;28;20072;-89
2023/09/13 11:29:27;;;;;;;640.50;217.63;;;19.30;99.90;;;;;;5049773;28;20295;-87
2023/09/13 11:31:58;;;;;;;650.33;219.33;;;19.00;99.90;;;;;;5066442;28;20049;-89
2023/09/13 11:34:28;;;;;;;653.00;218.00;;;19.00;99.90;;;;;;5071256;28;20310;-89
2023/09/13 11:37:04;;;;;;;655.77;218.20;;;18.90;99.90;;;;;;5069944;28;20052;-87
2023/09/13 11:39:49;;;;;;;669.72;220.73;;;18.80;99.90;;;;;;5092404;28;20183;-86
2023/09/13 11:53:36;;;;;;;685.42;222.27;;;18.40;99.90;;;;;;5003005;28;20288;-87
2023/09/13 11:56:02;;;;;;;689.40;221.37;;;18.50;99.90;;;;;;4986988;28;20055;-87
2023/09/13 11:58:38;;;;;;;689.67;221.30;;;18.60;99.90;;;;;;4997659;28;20066;-84
2023/09/13 12:01:07;;;;;;;701.67;222.23;;;18.50;99.90;;;;;;4999342;28;20313;-84
2023/09/13 12:03:36;;;;;;;704.03;220.93;;;18.70;99.90;;;;;;4979421;28;20401;-85
2023/09/13 12:06:03;;;;;;;714.07;223.27;;;19.00;99.90;;;;;;4993813;28;20054;-85
2023/09/13 12:08:31;;;;;;;711.53;223.73;;;19.40;99.90;;;;;;4978391;28;20409;-85
2023/09/13 12:11:00;;;;;;;715.50;223.80;;;19.50;99.90;;;;;;4981389;28;20763;-85
2023/09/13 12:13:54;;;;;;;710.57;224.57;;;19.50;99.90;;;;;;5018392;28;20053;-86
2023/09/13 12:16:20;;;;;;;705.67;224.43;;;19.30;99.90;;;;;;4891119;29;20067;-84
2023/09/13 12:18:46;;;;;;;699.27;223.93;;;19.10;99.90;;;;;;4891291;29;20052;-85
2023/09/13 12:21:13;;;;;;;695.10;222.27;;;19.00;99.90;;;;;;4901704;28;20454;-85
2023/09/13 12:23:46;;;;;;;695.37;222.23;;;18.90;99.90;;;;;;4984701;28;20078;-85
2023/09/13 12:26:13;;;;;;;749.70;225.47;;;18.50;99.90;;;;;;4985356;28;20291;-85
2023/09/13 12:28:40;;;;;;;741.33;225.90;;;18.10;99.90;;;;;;4985517;28;20348;-85
2023/09/13 12:31:09;;;;;;;736.17;226.37;;;18.00;99.90;;;;;;4969622;28;20342;-85
2023/09/13 12:33:37;;;;;;;732.77;226.17;;;17.80;99.90;;;;;;4971924;28;20075;-86
2023/09/13 12:36:04;;;;;;;731.60;226.53;;;17.70;99.90;;;;;;4988121;28;20316;-86
2023/09/13 12:38:32;;;;;;;732.70;227.23;;;17.60;99.90;;;;;;4987021;28;20286;-86
2023/09/13 12:40:58;;;;;;;726.77;224.77;;;17.60;99.90;;;;;;4987152;28;20322;-85
2023/09/13 12:43:32;;;;;;;734.27;227.77;;;17.60;99.90;;;;;;4987059;28;20102;-86
2023/09/13 12:45:58;;;;;;;732.50;226.10;;;17.60;99.90;;;;;;4983978;28;20059;-84
2023/09/13 12:48:27;;;;;;;742.87;227.03;;;17.60;99.90;;;;;;4965779;28;20293;-84
2023/09/13 12:50:54;;;;;;;743.90;228.20;;;17.70;99.90;;;;;;4977112;28;20332;-86
2023/09/13 12:53:23;;;;;;;750.57;228.53;;;17.70;99.90;;;;;;5012596;28;20084;-85
2023/09/13 12:55:49;;;;;;;762.77;227.57;;;17.70;99.90;;;;;;5038154;28;20292;-86
2023/09/13 12:58:15;;;;;;;765.63;229.00;;;17.70;99.90;;;;;;5021687;28;20037;-86
2023/09/13 13:00:52;;;;;;;768.13;228.57;;;17.90;99.90;;;;;;5055679;28;20052;-85
2023/09/13 13:03:19;;;;;;;778.23;227.03;;;17.80;99.90;;;;;;5021338;28;20429;-85
2023/09/13 13:05:48;;;;;;;779.70;228.57;;;17.80;99.90;;;;;;5055834;28;20650;-85